Hunter, Kentucky
Current Conditions -  °F | °C
As of 11:15 PM on Tuesday 27 Jan 2015 (Local Time) from KPBX Reporting Station
Broken Clouds Broken Clouds  
Wind Chill: 20°   Ceiling: 2400
Heat Index: 20°   Visibility: 10mi
Dew Point: 14°   Wind: 3mph
Humidity: 76%   Direction: 340°NNW
Pressure: 30.16"   Gusts: NA
Location:  37.5083°N, 82.7074°W
Report Text: KPBX 280415Z AUTO 34003KT 10SM BKN024 M07/M10 A3016 RMK AO2 T10661102
Loading
Personal Weather Stations






























Interactive Weather Map New forecast layout! Learn more

10-Day Weather Forecast

Advertisements
Track Severe Weather on mobile